X  Sluiten METAR luchtvaart weer gegevens      EHAM Amsterdam Airport Schiphol
Temperatuur
18°C Temperatuur
16°C Dauwpunt
88% Vochtigheid



Wind
8 KM/U
5 MPH
2 M/S
4 KTS



180°
Zuid
Huidig weer

Nevel Nevel
Luchtdruk 1014.92 (hPa) - 29.97 (inHg)
Zicht 3.1 (mijl) - 5 (km)
Vliegveld
Vliegveld code EHAM

Locatie : Amsterdam Airport Schiphol
Afstand: 25 (km)

Metar:
EHAM 170925Z 18004KT 130V230 5000 BR FEW010 BKN017 18/16 Q1015 BECMG 8000 SCT018

Tijd: 17-09-2021 11:25 CEST